createdAt,value
2023-02-06T00:01:38.627Z,31.60
2023-02-06T00:04:07.993Z,30.58
2023-02-06T00:06:36.164Z,28.50
2023-02-06T00:09:04.552Z,29.25
2023-02-06T00:11:32.508Z,30.35
2023-02-06T00:14:00.743Z,30.13
2023-02-06T00:16:30.466Z,28.13
2023-02-06T00:19:00.146Z,30.50
2023-02-06T00:21:30.913Z,28.90
2023-02-06T00:24:01.071Z,31.35
2023-02-06T00:26:29.332Z,30.27
2023-02-06T00:28:57.197Z,28.63
2023-02-06T00:31:25.135Z,28.35
2023-02-06T00:33:53.209Z,30.02
2023-02-06T00:36:21.181Z,29.08
2023-02-06T00:38:50.496Z,27.00
2023-02-06T00:41:18.441Z,27.90
2023-02-06T00:43:46.414Z,29.20
2023-02-06T00:46:14.300Z,30.27
2023-02-06T00:48:42.220Z,29.40
2023-02-06T00:51:10.128Z,32.83
2023-02-06T00:53:38.157Z,30.38
2023-02-06T00:56:08.007Z,27.83
2023-02-06T00:58:36.062Z,28.48
2023-02-06T01:01:04.556Z,31.85
2023-02-06T01:03:32.521Z,31.92
2023-02-06T01:06:00.495Z,31.75
2023-02-06T01:08:28.494Z,30.83
2023-02-06T01:10:56.524Z,31.10
2023-02-06T01:13:25.868Z,30.63
2023-02-06T01:15:53.814Z,28.27
2023-02-06T01:18:21.702Z,31.02
2023-02-06T01:20:49.634Z,28.80
2023-02-06T01:23:17.528Z,29.58
2023-02-06T01:25:45.484Z,28.92
2023-02-06T01:28:13.466Z,28.92
2023-02-06T01:30:42.891Z,32.63
2023-02-06T01:33:10.844Z,30.40
2023-02-06T01:35:38.807Z,33.00
2023-02-06T01:38:06.708Z,33.15
2023-02-06T01:40:34.646Z,32.38
2023-02-06T01:43:02.833Z,32.75
2023-02-06T01:45:44.586Z,31.50
2023-02-06T01:48:17.864Z,33.38
2023-02-06T01:50:50.672Z,29.95
2023-02-06T01:53:20.050Z,31.17
2023-02-06T01:55:51.885Z,31.77
2023-02-06T01:58:28.908Z,31.25
2023-02-06T02:00:59.852Z,32.97
2023-02-06T02:03:28.384Z,35.08
2023-02-06T02:06:08.117Z,35.78
2023-02-06T02:08:39.170Z,34.75
2023-02-06T02:11:09.221Z,30.30
2023-02-06T02:13:38.951Z,31.73
2023-02-06T02:16:16.277Z,32.95
2023-02-06T02:19:12.124Z,33.90
2023-02-06T02:22:09.471Z,32.33
2023-02-06T02:25:09.017Z,29.30
2023-02-06T02:27:51.976Z,28.95
2023-02-06T02:30:41.713Z,32.90
2023-02-06T02:33:46.048Z,32.60
2023-02-06T02:36:23.550Z,32.33
2023-02-06T02:38:59.024Z,28.23
2023-02-06T02:41:33.834Z,30.58
2023-02-06T02:44:08.957Z,31.75
2023-02-06T02:46:39.804Z,31.60
2023-02-06T02:49:12.876Z,31.50
2023-02-06T02:51:43.229Z,27.55
2023-02-06T02:54:11.351Z,28.70
2023-02-06T02:56:39.525Z,28.17
2023-02-06T02:59:12.646Z,29.00
2023-02-06T03:01:46.828Z,28.55
2023-02-06T03:04:21.429Z,27.98
2023-02-06T03:07:04.420Z,28.75
2023-02-06T03:09:46.275Z,26.88
2023-02-06T03:12:21.272Z,26.63
2023-02-06T03:14:56.796Z,27.92
2023-02-06T03:17:32.633Z,27.90
2023-02-06T03:20:03.803Z,26.65
2023-02-06T03:22:36.007Z,24.65
2023-02-06T03:25:08.362Z,24.67
2023-02-06T03:27:38.420Z,23.85
2023-02-06T03:30:10.282Z,23.73
2023-02-06T03:32:44.523Z,26.85
2023-02-06T03:35:17.179Z,26.67
2023-02-06T03:37:48.536Z,28.90
2023-02-06T03:40:17.583Z,27.85
2023-02-06T03:42:50.188Z,27.23
2023-02-06T03:45:23.893Z,27.98
2023-02-06T03:47:55.184Z,23.80
2023-02-06T03:50:24.705Z,23.23
2023-02-06T03:52:56.595Z,23.63
2023-02-06T03:55:25.493Z,24.77
2023-02-06T03:57:57.580Z,23.63
2023-02-06T04:00:26.321Z,24.35
2023-02-06T04:02:56.106Z,22.55
2023-02-06T04:05:24.120Z,23.15
2023-02-06T04:07:54.064Z,22.10
2023-02-06T04:10:22.008Z,23.90
2023-02-06T04:12:50.089Z,20.70
2023-02-06T04:15:18.115Z,19.70
2023-02-06T04:17:58.788Z,21.75
2023-02-06T04:20:27.725Z,21.23
2023-02-06T04:22:57.091Z,20.90
2023-02-06T04:25:25.228Z,20.40
2023-02-06T04:27:53.335Z,18.48
2023-02-06T04:30:21.337Z,19.08
2023-02-06T04:32:49.314Z,17.40
2023-02-06T04:35:17.310Z,18.15
2023-02-06T04:37:45.213Z,20.70
2023-02-06T04:40:14.858Z,17.35
2023-02-06T04:42:42.807Z,21.38
2023-02-06T04:45:11.314Z,18.52
2023-02-06T04:47:39.249Z,18.83
2023-02-06T04:50:08.228Z,20.25
2023-02-06T04:52:36.174Z,19.50
2023-02-06T04:55:04.123Z,20.60
2023-02-06T04:57:33.440Z,20.75
2023-02-06T05:00:01.410Z,21.92
2023-02-06T05:02:29.410Z,22.90
2023-02-06T05:04:57.404Z,24.48
2023-02-06T05:07:25.346Z,21.38
2023-02-06T05:09:53.264Z,23.88
2023-02-06T05:12:21.246Z,26.40
2023-02-06T05:14:50.521Z,22.15
2023-02-06T05:17:18.464Z,23.23
2023-02-06T05:19:46.857Z,23.98
2023-02-06T05:22:14.796Z,23.10
2023-02-06T05:24:42.754Z,24.13
2023-02-06T05:27:10.674Z,24.02
2023-02-06T05:29:38.605Z,24.08
2023-02-06T05:32:08.048Z,24.83
2023-02-06T05:34:36.031Z,23.10
2023-02-06T05:37:04.040Z,22.25
2023-02-06T05:39:31.985Z,22.42
2023-02-06T05:41:59.912Z,23.60
2023-02-06T05:44:27.997Z,26.85
2023-02-06T05:46:56.139Z,24.45
2023-02-06T05:49:25.430Z,23.02
2023-02-06T05:51:53.407Z,23.95
2023-02-06T05:54:21.319Z,21.85
2023-02-06T05:56:49.265Z,25.60
2023-02-06T05:59:17.153Z,27.17
2023-02-06T06:01:45.085Z,26.02
2023-02-06T06:04:13.028Z,25.33
2023-02-06T06:06:42.408Z,26.90
2023-02-06T06:09:10.294Z,27.38
2023-02-06T06:11:38.436Z,25.90
2023-02-06T06:14:06.918Z,24.13
2023-02-06T06:16:34.907Z,25.83
2023-02-06T06:19:03.020Z,24.92
2023-02-06T06:21:31.096Z,25.02
2023-02-06T06:24:00.538Z,27.85
2023-02-06T06:26:28.736Z,25.98
2023-02-06T06:28:57.535Z,26.20
2023-02-06T06:31:25.520Z,42.63
2023-02-06T06:33:54.295Z,42.05
2023-02-06T06:36:22.442Z,38.17
2023-02-06T06:38:50.363Z,33.90
2023-02-06T06:41:19.826Z,26.33
2023-02-06T06:43:48.707Z,24.13
2023-02-06T06:46:18.981Z,22.20
2023-02-06T06:48:46.860Z,22.35
2023-02-06T06:51:14.851Z,24.58
2023-02-06T06:53:42.827Z,23.40
2023-02-06T06:56:15.671Z,24.42
2023-02-06T06:58:45.022Z,24.48
2023-02-06T07:01:13.150Z,26.42
2023-02-06T07:03:44.232Z,27.42
2023-02-06T07:06:13.007Z,26.07
2023-02-06T07:08:42.147Z,24.60
2023-02-06T07:11:10.493Z,24.30
2023-02-06T07:13:39.023Z,25.42
2023-02-06T07:16:08.942Z,26.23
2023-02-06T07:18:38.549Z,28.08
2023-02-06T07:21:08.822Z,27.38
2023-02-06T07:23:38.409Z,28.05
2023-02-06T07:26:06.850Z,29.50
2023-02-06T07:28:34.967Z,29.23
2023-02-06T07:31:03.365Z,27.38
2023-02-06T07:33:32.791Z,30.25
2023-02-06T07:36:03.501Z,29.65
2023-02-06T07:38:31.831Z,30.27
2023-02-06T07:41:02.289Z,30.00
2023-02-06T07:43:30.770Z,30.48
2023-02-06T07:46:00.269Z,30.40
2023-02-06T07:48:28.412Z,30.20
2023-02-06T07:50:57.970Z,29.23
2023-02-06T07:53:25.890Z,30.33
2023-02-06T07:55:53.821Z,34.92
2023-02-06T07:58:21.709Z,30.65
2023-02-06T08:00:49.755Z,33.47
2023-02-06T08:03:17.692Z,30.80
2023-02-06T08:05:45.611Z,30.70
2023-02-06T08:08:15.014Z,32.22
2023-02-06T08:10:43.042Z,33.33
2023-02-06T08:13:10.981Z,32.42
2023-02-06T08:15:38.875Z,31.92
2023-02-06T08:18:06.794Z,29.95
2023-02-06T08:20:34.754Z,30.30
2023-02-06T08:23:02.670Z,31.10
2023-02-06T08:25:32.028Z,32.25
2023-02-06T08:28:00.040Z,31.35
2023-02-06T08:30:28.096Z,29.83
2023-02-06T08:32:56.032Z,31.55
2023-02-06T08:35:24.001Z,30.08
2023-02-06T08:37:51.930Z,30.27
2023-02-06T08:40:21.267Z,31.73
2023-02-06T08:42:52.459Z,30.98
2023-02-06T08:45:20.449Z,30.55
2023-02-06T08:47:48.332Z,31.45
2023-02-06T08:50:17.028Z,32.03
2023-02-06T08:52:44.989Z,30.17
2023-02-06T08:55:12.943Z,28.55
2023-02-06T08:57:40.945Z,27.80
2023-02-06T09:00:12.029Z,26.65
2023-02-06T09:02:40.085Z,31.52
2023-02-06T09:05:08.342Z,29.65
2023-02-06T09:07:36.237Z,26.65
2023-02-06T09:10:04.194Z,25.45
2023-02-06T09:12:32.105Z,33.63
2023-02-06T09:15:00.153Z,48.17
2023-02-06T09:17:31.648Z,29.73
2023-02-06T09:19:59.808Z,27.42
2023-02-06T09:22:28.224Z,26.88
2023-02-06T09:24:56.173Z,27.10
2023-02-06T09:27:28.200Z,26.45
2023-02-06T09:29:56.536Z,26.75
2023-02-06T09:32:24.728Z,27.73
2023-02-06T09:34:54.285Z,24.92
2023-02-06T09:37:23.506Z,27.58
2023-02-06T09:39:51.427Z,23.85
2023-02-06T09:42:24.839Z,24.52
2023-02-06T09:44:57.593Z,26.15
2023-02-06T09:47:29.411Z,24.88
2023-02-06T09:50:02.891Z,23.58
2023-02-06T09:52:42.967Z,24.63
2023-02-06T09:55:19.183Z,25.50
2023-02-06T09:57:54.428Z,22.75
2023-02-06T10:00:35.513Z,28.40
2023-02-06T10:03:31.272Z,26.40
2023-02-06T10:06:12.390Z,23.55
2023-02-06T10:08:43.306Z,37.13
2023-02-06T10:11:23.263Z,29.80
2023-02-06T10:13:55.485Z,30.80
2023-02-06T10:16:35.804Z,35.63
2023-02-06T10:19:07.188Z,32.03
2023-02-06T10:21:41.409Z,26.45
2023-02-06T10:24:14.866Z,28.48
2023-02-06T10:26:42.864Z,25.73
2023-02-06T10:29:19.478Z,25.15
2023-02-06T10:31:56.416Z,23.85
2023-02-06T10:34:40.168Z,24.77
2023-02-06T10:37:25.721Z,24.15
2023-02-06T10:40:12.310Z,24.88
2023-02-06T10:42:51.787Z,23.95
2023-02-06T10:45:33.907Z,21.95
2023-02-06T10:48:06.614Z,22.90
2023-02-06T10:50:38.864Z,21.58
2023-02-06T10:53:42.946Z,22.30
2023-02-06T10:56:27.295Z,23.33
2023-02-06T10:58:59.354Z,21.85
2023-02-06T11:01:31.814Z,20.77
2023-02-06T11:04:04.512Z,22.48
2023-02-06T11:06:33.270Z,21.33
2023-02-06T11:09:02.634Z,20.80
2023-02-06T11:11:32.179Z,20.70
2023-02-06T11:14:05.586Z,24.75
2023-02-06T11:16:37.641Z,45.63
2023-02-06T11:19:17.655Z,22.52
2023-02-06T11:21:57.413Z,18.50
2023-02-06T11:24:26.775Z,20.50
2023-02-06T11:26:58.302Z,21.80
2023-02-06T11:29:29.082Z,25.40
2023-02-06T11:31:59.659Z,20.10
2023-02-06T11:34:30.860Z,18.83
2023-02-06T11:37:00.746Z,19.52
2023-02-06T11:39:32.301Z,21.88
2023-02-06T11:42:04.179Z,20.40
2023-02-06T11:44:38.618Z,19.27
2023-02-06T11:47:33.477Z,15.88
2023-02-06T11:50:22.883Z,16.80
2023-02-06T11:52:55.824Z,14.82
2023-02-06T11:55:27.690Z,12.40
2023-02-06T11:58:05.813Z,12.25
2023-02-06T12:00:36.029Z,16.95
2023-02-06T12:03:04.418Z,25.30
2023-02-06T12:05:36.328Z,28.58
2023-02-06T12:08:10.595Z,15.27
2023-02-06T12:10:55.284Z,12.77
2023-02-06T12:13:26.893Z,17.95
2023-02-06T12:15:57.985Z,18.35
2023-02-06T12:18:29.789Z,17.15
2023-02-06T12:21:01.349Z,15.18
2023-02-06T12:23:35.426Z,13.68
2023-02-06T12:26:09.637Z,14.95
2023-02-06T12:28:44.285Z,11.80
2023-02-06T12:31:20.335Z,10.90
2023-02-06T12:33:54.033Z,8.43
2023-02-06T12:36:25.752Z,8.25
2023-02-06T12:38:58.685Z,8.65
2023-02-06T12:41:43.541Z,8.27
2023-02-06T12:44:24.200Z,8.70
2023-02-06T12:46:58.218Z,10.02
2023-02-06T12:49:31.479Z,9.00
2023-02-06T12:52:05.897Z,9.38
2023-02-06T12:54:40.402Z,9.07
2023-02-06T12:57:16.491Z,9.10
2023-02-06T13:03:23.429Z,8.38
2023-02-06T13:05:54.698Z,9.32
2023-02-06T13:08:29.725Z,10.10
2023-02-06T13:11:04.183Z,10.05
2023-02-06T13:13:36.673Z,8.82
2023-02-06T13:16:07.774Z,9.43
2023-02-06T13:18:53.697Z,9.13
2023-02-06T13:21:29.133Z,9.52
2023-02-06T13:24:19.764Z,8.88
2023-02-06T13:27:16.116Z,10.77
2023-02-06T13:29:47.263Z,9.60
2023-02-06T13:35:28.232Z,8.55
2023-02-06T13:38:26.512Z,9.73
2023-02-06T13:41:24.125Z,8.98
2023-02-06T13:43:58.050Z,7.93
2023-02-06T13:49:25.718Z,6.55
2023-02-06T13:52:01.791Z,7.45
2023-02-06T13:54:51.891Z,7.78
2023-02-06T13:57:51.314Z,8.00
2023-02-06T14:00:23.096Z,7.05
2023-02-06T14:02:55.576Z,8.77
2023-02-06T14:05:31.154Z,7.85
2023-02-06T14:08:07.772Z,7.38
2023-02-06T14:10:59.707Z,6.63
2023-02-06T14:13:41.747Z,8.27
2023-02-06T14:16:27.985Z,8.02
2023-02-06T14:19:02.343Z,7.80
2023-02-06T14:21:40.201Z,8.98
2023-02-06T14:24:31.128Z,8.40
2023-02-06T14:27:17.923Z,8.93
2023-02-06T14:29:55.867Z,8.65
2023-02-06T14:32:37.335Z,8.55
2023-02-06T14:35:26.267Z,7.80
2023-02-06T14:38:10.929Z,7.78
2023-02-06T14:40:43.490Z,8.10
2023-02-06T14:43:16.259Z,8.00
2023-02-06T14:46:05.689Z,8.20
2023-02-06T14:48:39.867Z,7.72
2023-02-06T14:51:20.176Z,8.75
2023-02-06T14:53:55.000Z,8.77
2023-02-06T14:56:33.944Z,8.68
2023-02-06T14:59:15.949Z,8.48
2023-02-06T15:01:45.656Z,8.00
2023-02-06T15:04:17.245Z,7.57
2023-02-06T15:06:53.013Z,7.18
2023-02-06T15:09:26.556Z,8.07
2023-02-06T15:11:56.542Z,7.60
2023-02-06T15:14:26.892Z,7.65
2023-02-06T15:16:59.308Z,7.53
2023-02-06T15:19:29.258Z,8.63
2023-02-06T15:22:02.016Z,10.45
2023-02-06T15:24:51.435Z,8.63
2023-02-06T15:27:27.746Z,11.75
2023-02-06T15:29:56.613Z,8.98
2023-02-06T15:32:29.331Z,9.55
2023-02-06T15:34:57.588Z,8.57
2023-02-06T15:37:30.056Z,7.40
2023-02-06T15:40:02.525Z,8.57
2023-02-06T15:42:30.564Z,9.18
2023-02-06T15:44:58.940Z,8.52
2023-02-06T15:47:27.012Z,8.70
2023-02-06T15:49:56.116Z,9.52
2023-02-06T15:52:37.202Z,10.88
2023-02-06T15:55:05.988Z,10.00
2023-02-06T15:57:38.677Z,8.65
2023-02-06T16:00:09.842Z,8.82
2023-02-06T16:02:40.955Z,7.95
2023-02-06T16:05:27.791Z,7.72
2023-02-06T16:07:57.848Z,8.90
2023-02-06T16:10:28.618Z,9.90
2023-02-06T16:12:59.035Z,8.80
2023-02-06T16:15:33.403Z,7.28
2023-02-06T16:18:03.619Z,7.80
2023-02-06T16:20:40.162Z,7.85
2023-02-06T16:23:25.057Z,7.60
2023-02-06T16:26:03.632Z,8.27
2023-02-06T16:28:32.232Z,19.75
2023-02-06T16:31:02.334Z,14.98
2023-02-06T16:33:38.244Z,7.43
2023-02-06T16:36:06.837Z,12.57
2023-02-06T16:38:36.805Z,14.75
2023-02-06T16:48:46.272Z,11.25
2023-02-06T16:51:17.602Z,9.15
2023-02-06T16:53:49.170Z,7.72
2023-02-06T16:56:18.493Z,10.77
2023-02-06T16:58:47.075Z,17.55
2023-02-06T17:01:22.276Z,10.13
2023-02-06T17:03:50.992Z,7.13
2023-02-06T17:06:25.848Z,7.22
2023-02-06T17:09:02.042Z,7.22
2023-02-06T17:11:30.077Z,6.35
2023-02-06T17:13:58.066Z,7.95
2023-02-06T17:16:27.576Z,6.88
2023-02-06T17:18:55.837Z,4.93
2023-02-06T17:21:28.356Z,4.75
2023-02-06T17:23:57.710Z,4.53
2023-02-06T17:26:25.837Z,4.40
2023-02-06T17:28:53.758Z,4.50
2023-02-06T17:31:21.965Z,4.53
2023-02-06T17:33:50.451Z,5.00
2023-02-06T17:36:22.006Z,3.78
2023-02-06T17:38:50.153Z,4.60
2023-02-06T17:41:19.470Z,4.78
2023-02-06T17:43:47.407Z,5.55
2023-02-06T17:46:15.362Z,5.60
2023-02-06T17:48:44.581Z,5.72
2023-02-06T17:51:12.696Z,4.70
2023-02-06T17:53:40.631Z,5.20
2023-02-06T17:56:12.767Z,5.53
2023-02-06T17:58:42.649Z,5.78
2023-02-06T18:01:12.644Z,5.53
2023-02-06T18:03:40.732Z,5.57
2023-02-06T18:06:09.505Z,6.28
2023-02-06T18:08:37.729Z,5.68
2023-02-06T18:11:11.398Z,6.38
2023-02-06T18:13:39.995Z,6.55
2023-02-06T18:16:14.413Z,6.78
2023-02-06T18:18:42.391Z,6.15
2023-02-06T18:21:10.564Z,6.57
2023-02-06T18:23:38.965Z,6.57
2023-02-06T18:26:08.961Z,7.22
2023-02-06T18:28:38.251Z,7.78
2023-02-06T18:31:07.017Z,7.43
2023-02-06T18:33:36.626Z,8.10
2023-02-06T18:36:06.959Z,7.50
2023-02-06T18:38:35.142Z,7.25
2023-02-06T18:41:04.549Z,7.10
2023-02-06T18:43:31.748Z,4.88
2023-02-06T18:45:59.718Z,4.93
2023-02-06T18:48:28.817Z,4.25
2023-02-06T18:50:58.591Z,5.07
2023-02-06T18:53:26.564Z,4.28
2023-02-06T18:55:58.569Z,4.47
2023-02-06T18:58:26.457Z,4.20
2023-02-06T19:00:54.957Z,5.45
2023-02-06T19:03:23.251Z,4.88
2023-02-06T19:05:51.225Z,4.15
2023-02-06T19:08:20.651Z,4.25
2023-02-06T19:10:48.645Z,4.00
2023-02-06T19:13:16.562Z,3.30
2023-02-06T19:15:44.881Z,3.72
2023-02-06T19:18:12.787Z,3.92
2023-02-06T19:20:42.524Z,3.60
2023-02-06T19:23:10.514Z,2.70
2023-02-06T19:25:41.846Z,3.03
2023-02-06T19:28:09.869Z,3.95
2023-02-06T19:30:38.054Z,3.38
2023-02-06T19:33:06.161Z,2.85
2023-02-06T19:35:34.125Z,2.70
2023-02-06T19:38:03.559Z,2.92
2023-02-06T19:40:31.496Z,2.55
2023-02-06T19:43:00.800Z,3.22
2023-02-06T19:45:29.014Z,2.97
2023-02-06T19:47:57.233Z,2.97
2023-02-06T19:50:25.164Z,3.15
2023-02-06T19:52:53.330Z,3.47
2023-02-06T19:55:21.266Z,3.40
2023-02-06T19:57:49.206Z,4.00
2023-02-06T20:00:18.984Z,4.35
2023-02-06T20:02:46.936Z,3.60
2023-02-06T20:05:14.823Z,3.58
2023-02-06T20:07:42.788Z,4.53
2023-02-06T20:10:11.171Z,3.78
2023-02-06T20:12:39.182Z,3.70
2023-02-06T20:15:07.685Z,3.80
2023-02-06T20:17:37.067Z,3.75
2023-02-06T20:20:06.610Z,4.10
2023-02-06T20:22:35.070Z,4.25
2023-02-06T20:25:03.061Z,4.40
2023-02-06T20:27:31.184Z,3.85
2023-02-06T20:29:59.093Z,7.38
2023-02-06T20:32:27.411Z,10.38
2023-02-06T20:34:57.848Z,9.68
2023-02-06T20:37:26.367Z,8.23
2023-02-06T20:39:54.377Z,8.82
2023-02-06T20:42:24.765Z,7.68
2023-02-06T20:44:52.753Z,4.93
2023-02-06T20:47:20.709Z,5.35
2023-02-06T20:49:48.676Z,5.60
2023-02-06T20:52:19.237Z,5.57
2023-02-06T20:54:47.334Z,6.57
2023-02-06T20:57:15.567Z,5.35
2023-02-06T20:59:43.527Z,6.40
2023-02-06T21:02:11.636Z,5.50
2023-02-06T21:04:39.625Z,5.78
2023-02-06T21:07:07.661Z,6.05
2023-02-06T21:09:37.339Z,6.20
2023-02-06T21:12:05.997Z,6.45
2023-02-06T21:14:33.977Z,6.90
2023-02-06T21:17:02.701Z,6.15
2023-02-06T21:19:30.631Z,6.05
2023-02-06T21:21:58.848Z,6.13
2023-02-06T21:24:26.745Z,4.68
2023-02-06T21:26:56.110Z,5.75
2023-02-06T21:29:26.389Z,5.70
2023-02-06T21:32:11.079Z,5.03
2023-02-06T21:34:39.208Z,5.30
2023-02-06T21:37:07.141Z,5.90
2023-02-06T21:39:35.320Z,4.97
2023-02-06T21:42:04.844Z,4.90
2023-02-06T21:44:32.828Z,4.93
2023-02-06T21:47:04.265Z,5.55
2023-02-06T21:49:32.415Z,4.97
2023-02-06T21:52:00.603Z,4.85
2023-02-06T21:54:29.466Z,5.18
2023-02-06T21:56:58.716Z,5.32
2023-02-06T21:59:28.153Z,5.53
2023-02-06T22:01:56.109Z,7.03
2023-02-06T22:04:24.065Z,5.13
2023-02-06T22:06:52.081Z,4.68
2023-02-06T22:09:20.892Z,4.57
2023-02-06T22:11:49.020Z,5.78
2023-02-06T22:14:19.050Z,5.50
2023-02-06T22:16:48.719Z,5.53
2023-02-06T22:19:17.296Z,4.97
2023-02-06T22:21:45.578Z,4.72
2023-02-06T22:24:13.755Z,4.88
2023-02-06T22:26:41.791Z,5.18
2023-02-06T22:29:17.871Z,5.40
2023-02-06T22:31:46.615Z,5.55
2023-02-06T22:34:18.969Z,5.07
2023-02-06T22:36:47.012Z,5.05
2023-02-06T22:39:16.335Z,5.95
2023-02-06T22:41:46.181Z,5.20
2023-02-06T22:44:16.928Z,5.35
2023-02-06T22:46:46.814Z,4.60
2023-02-06T22:49:17.066Z,5.82
2023-02-06T22:51:45.822Z,5.93
2023-02-06T22:54:14.960Z,5.53
2023-02-06T22:56:44.827Z,7.63
2023-02-06T22:59:14.862Z,6.15
2023-02-06T23:01:44.970Z,5.32
2023-02-06T23:04:15.455Z,5.95
2023-02-06T23:06:45.936Z,6.45
2023-02-06T23:09:17.181Z,6.20
2023-02-06T23:11:45.773Z,6.65
2023-02-06T23:14:15.804Z,6.18
2023-02-06T23:16:43.940Z,6.60
2023-02-06T23:19:13.142Z,6.38
2023-02-06T23:21:42.951Z,6.35
2023-02-06T23:24:13.326Z,6.50
2023-02-06T23:26:43.235Z,7.25
2023-02-06T23:29:15.745Z,7.68
2023-02-06T23:31:44.022Z,7.85
2023-02-06T23:34:12.685Z,7.22
2023-02-06T23:36:40.677Z,7.60
2023-02-06T23:39:08.564Z,6.90
2023-02-06T23:41:37.949Z,6.22
2023-02-06T23:44:08.115Z,7.93
2023-02-06T23:46:37.969Z,5.55
2023-02-06T23:49:06.488Z,7.88
2023-02-06T23:51:35.250Z,6.05
2023-02-06T23:54:03.701Z,7.00
2023-02-06T23:56:33.015Z,7.68
2023-02-06T23:59:04.019Z,7.00
